sensor_id;sensor_type;location;lat;lon;timestamp;P1;durP1;ratioP1;P2;durP2;ratioP2
49183;SDS011;35021;49.214;12.270;2022-08-24T00:00:22;2.35;;;2.15;;
49183;SDS011;35021;49.214;12.270;2022-08-24T00:02:49;2.10;;;1.90;;
49183;SDS011;35021;49.214;12.270;2022-08-24T00:05:17;2.20;;;1.90;;
49183;SDS011;35021;49.214;12.270;2022-08-24T00:07:47;2.78;;;2.03;;
49183;SDS011;35021;49.214;12.270;2022-08-24T00:10:15;2.28;;;1.92;;
49183;SDS011;35021;49.214;12.270;2022-08-24T00:12:44;2.13;;;1.92;;
49183;SDS011;35021;49.214;12.270;2022-08-24T00:15:11;2.13;;;1.92;;
49183;SDS011;35021;49.214;12.270;2022-08-24T00:17:39;2.00;;;1.80;;
49183;SDS011;35021;49.214;12.270;2022-08-24T00:20:07;2.22;;;2.03;;
49183;SDS011;35021;49.214;12.270;2022-08-24T00:22:37;2.97;;;1.73;;
49183;SDS011;35021;49.214;12.270;2022-08-24T00:25:06;3.08;;;2.05;;
49183;SDS011;35021;49.214;12.270;2022-08-24T00:27:35;2.25;;;2.00;;
49183;SDS011;35021;49.214;12.270;2022-08-24T00:30:04;3.08;;;1.90;;
49183;SDS011;35021;49.214;12.270;2022-08-24T00:32:33;1.90;;;1.80;;
49183;SDS011;35021;49.214;12.270;2022-08-24T00:35:06;2.35;;;2.15;;
49183;SDS011;35021;49.214;12.270;2022-08-24T00:37:34;2.10;;;1.90;;
49183;SDS011;35021;49.214;12.270;2022-08-24T00:40:06;2.25;;;1.80;;
49183;SDS011;35021;49.214;12.270;2022-08-24T00:42:37;2.15;;;1.95;;
49183;SDS011;35021;49.214;12.270;2022-08-24T00:45:05;2.53;;;2.10;;
49183;SDS011;35021;49.214;12.270;2022-08-24T00:47:38;2.10;;;1.90;;
49183;SDS011;35021;49.214;12.270;2022-08-24T00:50:22;2.47;;;2.17;;
49183;SDS011;35021;49.214;12.270;2022-08-24T00:52:56;2.15;;;1.95;;
49183;SDS011;35021;49.214;12.270;2022-08-24T00:55:36;2.67;;;1.90;;
49183;SDS011;35021;49.214;12.270;2022-08-24T00:58:08;2.03;;;1.80;;
49183;SDS011;35021;49.214;12.270;2022-08-24T01:00:44;2.10;;;2.00;;
49183;SDS011;35021;49.214;12.270;2022-08-24T01:03:16;1.83;;;1.73;;
49183;SDS011;35021;49.214;12.270;2022-08-24T01:05:43;2.25;;;2.05;;
49183;SDS011;35021;49.214;12.270;2022-08-24T01:08:11;1.73;;;1.63;;
49183;SDS011;35021;49.214;12.270;2022-08-24T01:10:43;2.40;;;2.20;;
49183;SDS011;35021;49.214;12.270;2022-08-24T01:13:14;2.45;;;1.90;;
49183;SDS011;35021;49.214;12.270;2022-08-24T01:15:43;2.15;;;1.95;;
49183;SDS011;35021;49.214;12.270;2022-08-24T01:18:18;3.00;;;2.00;;
49183;SDS011;35021;49.214;12.270;2022-08-24T01:23:45;2.00;;;1.80;;
49183;SDS011;35021;49.214;12.270;2022-08-24T01:26:16;2.55;;;1.90;;
49183;SDS011;35021;49.214;12.270;2022-08-24T01:28:49;2.00;;;1.85;;
49183;SDS011;35021;49.214;12.270;2022-08-24T01:31:23;2.22;;;1.60;;
49183;SDS011;35021;49.214;12.270;2022-08-24T01:33:51;2.28;;;1.75;;
49183;SDS011;35021;49.214;12.270;2022-08-24T01:36:21;2.08;;;1.90;;
49183;SDS011;35021;49.214;12.270;2022-08-24T01:38:55;2.13;;;1.92;;
49183;SDS011;35021;49.214;12.270;2022-08-24T01:41:26;1.90;;;1.70;;
49183;SDS011;35021;49.214;12.270;2022-08-24T01:43:55;2.30;;;2.10;;
49183;SDS011;35021;49.214;12.270;2022-08-24T01:46:25;2.10;;;1.90;;
49183;SDS011;35021;49.214;12.270;2022-08-24T01:48:52;2.13;;;1.92;;
49183;SDS011;35021;49.214;12.270;2022-08-24T01:51:21;2.00;;;1.80;;
49183;SDS011;35021;49.214;12.270;2022-08-24T01:53:48;2.25;;;1.80;;
49183;SDS011;35021;49.214;12.270;2022-08-24T01:56:17;1.70;;;1.60;;
49183;SDS011;35021;49.214;12.270;2022-08-24T01:58:44;2.45;;;1.90;;
49183;SDS011;35021;49.214;12.270;2022-08-24T02:01:13;2.28;;;2.00;;
49183;SDS011;35021;49.214;12.270;2022-08-24T02:03:43;2.33;;;2.10;;
49183;SDS011;35021;49.214;12.270;2022-08-24T02:06:13;1.98;;;1.80;;
49183;SDS011;35021;49.214;12.270;2022-08-24T02:08:42;2.03;;;1.83;;
49183;SDS011;35021;49.214;12.270;2022-08-24T02:11:10;2.05;;;1.80;;
49183;SDS011;35021;49.214;12.270;2022-08-24T02:13:38;2.40;;;2.00;;
49183;SDS011;35021;49.214;12.270;2022-08-24T02:16:06;1.90;;;1.70;;
49183;SDS011;35021;49.214;12.270;2022-08-24T02:18:35;1.75;;;1.65;;
49183;SDS011;35021;49.214;12.270;2022-08-24T02:21:06;2.53;;;2.00;;
49183;SDS011;35021;49.214;12.270;2022-08-24T02:23:35;2.20;;;2.00;;
49183;SDS011;35021;49.214;12.270;2022-08-24T02:26:03;1.80;;;1.67;;
49183;SDS011;35021;49.214;12.270;2022-08-24T02:28:32;2.22;;;2.00;;
49183;SDS011;35021;49.214;12.270;2022-08-24T02:30:59;3.03;;;1.90;;
49183;SDS011;35021;49.214;12.270;2022-08-24T02:33:26;2.10;;;1.90;;
49183;SDS011;35021;49.214;12.270;2022-08-24T02:35:53;1.70;;;1.60;;
49183;SDS011;35021;49.214;12.270;2022-08-24T02:38:20;2.53;;;2.00;;
49183;SDS011;35021;49.214;12.270;2022-08-24T02:40:47;1.63;;;1.52;;
49183;SDS011;35021;49.214;12.270;2022-08-24T02:43:15;1.95;;;1.75;;
49183;SDS011;35021;49.214;12.270;2022-08-24T02:45:43;2.22;;;2.03;;
49183;SDS011;35021;49.214;12.270;2022-08-24T02:48:16;1.90;;;1.80;;
49183;SDS011;35021;49.214;12.270;2022-08-24T02:50:45;2.00;;;1.80;;
49183;SDS011;35021;49.214;12.270;2022-08-24T02:53:14;2.88;;;1.70;;
49183;SDS011;35021;49.214;12.270;2022-08-24T02:55:43;2.30;;;1.92;;
49183;SDS011;35021;49.214;12.270;2022-08-24T02:58:12;5.63;;;2.22;;
49183;SDS011;35021;49.214;12.270;2022-08-24T03:00:42;2.55;;;1.92;;
49183;SDS011;35021;49.214;12.270;2022-08-24T03:03:10;2.20;;;2.00;;
49183;SDS011;35021;49.214;12.270;2022-08-24T03:05:37;2.80;;;2.20;;
49183;SDS011;35021;49.214;12.270;2022-08-24T03:08:05;2.15;;;1.95;;
49183;SDS011;35021;49.214;12.270;2022-08-24T03:10:32;2.38;;;2.17;;
49183;SDS011;35021;49.214;12.270;2022-08-24T03:12:59;2.30;;;2.10;;
49183;SDS011;35021;49.214;12.270;2022-08-24T03:15:27;2.15;;;1.95;;
49183;SDS011;35021;49.214;12.270;2022-08-24T03:17:55;1.98;;;1.70;;
49183;SDS011;35021;49.214;12.270;2022-08-24T03:20:22;2.22;;;1.70;;
49183;SDS011;35021;49.214;12.270;2022-08-24T03:22:50;3.05;;;2.20;;
49183;SDS011;35021;49.214;12.270;2022-08-24T03:25:18;2.30;;;2.10;;
49183;SDS011;35021;49.214;12.270;2022-08-24T03:27:46;2.40;;;2.00;;
49183;SDS011;35021;49.214;12.270;2022-08-24T03:30:13;2.10;;;1.88;;
49183;SDS011;35021;49.214;12.270;2022-08-24T03:32:42;1.75;;;1.65;;
49183;SDS011;35021;49.214;12.270;2022-08-24T03:35:10;4.45;;;1.95;;
49183;SDS011;35021;49.214;12.270;2022-08-24T03:37:38;1.80;;;1.67;;
49183;SDS011;35021;49.214;12.270;2022-08-24T03:40:06;1.92;;;1.80;;
49183;SDS011;35021;49.214;12.270;2022-08-24T03:42:49;2.22;;;2.03;;
49183;SDS011;35021;49.214;12.270;2022-08-24T03:45:17;2.00;;;1.80;;
49183;SDS011;35021;49.214;12.270;2022-08-24T03:47:44;2.10;;;1.73;;
49183;SDS011;35021;49.214;12.270;2022-08-24T03:50:12;2.22;;;2.03;;
49183;SDS011;35021;49.214;12.270;2022-08-24T03:52:40;4.07;;;2.42;;
49183;SDS011;35021;49.214;12.270;2022-08-24T03:55:07;2.50;;;2.10;;
49183;SDS011;35021;49.214;12.270;2022-08-24T03:57:35;2.40;;;2.20;;
49183;SDS011;35021;49.214;12.270;2022-08-24T04:00:03;2.83;;;2.30;;
49183;SDS011;35021;49.214;12.270;2022-08-24T04:02:32;3.40;;;2.22;;
49183;SDS011;35021;49.214;12.270;2022-08-24T04:04:59;4.13;;;2.58;;
49183;SDS011;35021;49.214;12.270;2022-08-24T04:07:26;4.40;;;2.10;;
49183;SDS011;35021;49.214;12.270;2022-08-24T04:09:53;2.50;;;2.30;;
49183;SDS011;35021;49.214;12.270;2022-08-24T04:12:20;2.58;;;2.20;;
49183;SDS011;35021;49.214;12.270;2022-08-24T04:14:52;3.53;;;2.30;;
49183;SDS011;35021;49.214;12.270;2022-08-24T04:17:21;2.33;;;2.08;;
49183;SDS011;35021;49.214;12.270;2022-08-24T04:19:48;2.75;;;2.55;;
49183;SDS011;35021;49.214;12.270;2022-08-24T04:22:24;2.42;;;2.22;;
49183;SDS011;35021;49.214;12.270;2022-08-24T04:24:53;2.40;;;2.17;;
49183;SDS011;35021;49.214;12.270;2022-08-24T04:27:21;2.65;;;2.42;;
49183;SDS011;35021;49.214;12.270;2022-08-24T04:29:48;3.28;;;2.40;;
49183;SDS011;35021;49.214;12.270;2022-08-24T04:32:15;2.50;;;2.30;;
49183;SDS011;35021;49.214;12.270;2022-08-24T04:34:43;2.60;;;2.40;;
49183;SDS011;35021;49.214;12.270;2022-08-24T04:37:12;3.40;;;2.50;;
49183;SDS011;35021;49.214;12.270;2022-08-24T04:39:40;3.20;;;2.60;;
49183;SDS011;35021;49.214;12.270;2022-08-24T04:42:08;2.95;;;2.40;;
49183;SDS011;35021;49.214;12.270;2022-08-24T04:44:37;2.78;;;2.40;;
49183;SDS011;35021;49.214;12.270;2022-08-24T04:47:05;4.05;;;2.47;;
49183;SDS011;35021;49.214;12.270;2022-08-24T04:49:34;4.53;;;3.20;;
49183;SDS011;35021;49.214;12.270;2022-08-24T04:52:03;2.40;;;2.20;;
49183;SDS011;35021;49.214;12.270;2022-08-24T04:54:33;2.60;;;2.40;;
49183;SDS011;35021;49.214;12.270;2022-08-24T04:57:00;2.20;;;2.00;;
49183;SDS011;35021;49.214;12.270;2022-08-24T04:59:27;2.58;;;2.35;;
49183;SDS011;35021;49.214;12.270;2022-08-24T05:01:54;3.05;;;2.60;;
49183;SDS011;35021;49.214;12.270;2022-08-24T05:04:21;2.55;;;2.35;;
49183;SDS011;35021;49.214;12.270;2022-08-24T05:06:48;4.25;;;2.35;;
49183;SDS011;35021;49.214;12.270;2022-08-24T05:09:20;3.92;;;2.15;;
49183;SDS011;35021;49.214;12.270;2022-08-24T05:11:49;3.28;;;2.47;;
49183;SDS011;35021;49.214;12.270;2022-08-24T05:14:18;2.50;;;2.30;;
49183;SDS011;35021;49.214;12.270;2022-08-24T05:16:46;4.57;;;2.65;;
49183;SDS011;35021;49.214;12.270;2022-08-24T05:19:19;3.03;;;2.35;;
49183;SDS011;35021;49.214;12.270;2022-08-24T05:21:46;2.45;;;2.20;;
49183;SDS011;35021;49.214;12.270;2022-08-24T05:24:13;2.85;;;2.38;;
49183;SDS011;35021;49.214;12.270;2022-08-24T05:26:40;2.38;;;2.17;;
49183;SDS011;35021;49.214;12.270;2022-08-24T05:29:07;3.42;;;2.22;;
49183;SDS011;35021;49.214;12.270;2022-08-24T05:31:34;2.40;;;2.20;;
49183;SDS011;35021;49.214;12.270;2022-08-24T05:34:02;4.43;;;2.28;;
49183;SDS011;35021;49.214;12.270;2022-08-24T05:36:31;5.22;;;2.53;;
49183;SDS011;35021;49.214;12.270;2022-08-24T05:39:00;3.08;;;2.45;;
49183;SDS011;35021;49.214;12.270;2022-08-24T05:41:35;2.53;;;2.30;;
49183;SDS011;35021;49.214;12.270;2022-08-24T05:44:03;3.58;;;2.47;;
49183;SDS011;35021;49.214;12.270;2022-08-24T05:46:31;3.58;;;1.90;;
49183;SDS011;35021;49.214;12.270;2022-08-24T05:48:58;4.53;;;2.30;;
49183;SDS011;35021;49.214;12.270;2022-08-24T05:51:26;2.92;;;2.38;;
49183;SDS011;35021;49.214;12.270;2022-08-24T05:53:55;3.80;;;2.00;;
49183;SDS011;35021;49.214;12.270;2022-08-24T05:56:23;2.83;;;2.60;;
49183;SDS011;35021;49.214;12.270;2022-08-24T05:58:57;3.75;;;2.50;;
49183;SDS011;35021;49.214;12.270;2022-08-24T06:01:24;2.60;;;2.40;;
49183;SDS011;35021;49.214;12.270;2022-08-24T06:03:53;4.10;;;2.60;;
49183;SDS011;35021;49.214;12.270;2022-08-24T06:06:22;3.00;;;2.65;;
49183;SDS011;35021;49.214;12.270;2022-08-24T06:08:50;3.75;;;2.80;;
49183;SDS011;35021;49.214;12.270;2022-08-24T06:11:21;3.17;;;2.53;;
49183;SDS011;35021;49.214;12.270;2022-08-24T06:13:57;2.90;;;2.53;;
49183;SDS011;35021;49.214;12.270;2022-08-24T06:16:26;3.95;;;2.30;;
49183;SDS011;35021;49.214;12.270;2022-08-24T06:18:54;3.63;;;2.63;;
49183;SDS011;35021;49.214;12.270;2022-08-24T06:21:23;4.20;;;2.60;;
49183;SDS011;35021;49.214;12.270;2022-08-24T06:23:53;3.17;;;2.75;;
49183;SDS011;35021;49.214;12.270;2022-08-24T06:26:21;4.40;;;2.38;;
49183;SDS011;35021;49.214;12.270;2022-08-24T06:29:06;4.20;;;2.90;;
49183;SDS011;35021;49.214;12.270;2022-08-24T06:31:40;3.03;;;2.70;;
49183;SDS011;35021;49.214;12.270;2022-08-24T06:34:09;2.90;;;2.70;;
49183;SDS011;35021;49.214;12.270;2022-08-24T06:36:37;6.47;;;2.85;;
49183;SDS011;35021;49.214;12.270;2022-08-24T06:39:05;2.97;;;2.63;;
49183;SDS011;35021;49.214;12.270;2022-08-24T06:41:35;3.13;;;2.30;;
49183;SDS011;35021;49.214;12.270;2022-08-24T06:44:04;3.85;;;2.50;;
49183;SDS011;35021;49.214;12.270;2022-08-24T06:46:32;4.03;;;3.08;;
49183;SDS011;35021;49.214;12.270;2022-08-24T06:49:01;2.63;;;2.35;;
49183;SDS011;35021;49.214;12.270;2022-08-24T06:51:30;3.38;;;2.53;;
49183;SDS011;35021;49.214;12.270;2022-08-24T06:53:57;3.60;;;2.72;;
49183;SDS011;35021;49.214;12.270;2022-08-24T06:56:24;3.10;;;2.80;;
49183;SDS011;35021;49.214;12.270;2022-08-24T06:58:51;3.28;;;2.97;;
49183;SDS011;35021;49.214;12.270;2022-08-24T07:01:20;2.80;;;2.40;;
49183;SDS011;35021;49.214;12.270;2022-08-24T07:03:49;3.30;;;3.00;;
49183;SDS011;35021;49.214;12.270;2022-08-24T07:06:16;3.42;;;2.83;;
49183;SDS011;35021;49.214;12.270;2022-08-24T07:08:44;2.90;;;2.60;;
49183;SDS011;35021;49.214;12.270;2022-08-24T07:11:11;2.97;;;2.78;;
49183;SDS011;35021;49.214;12.270;2022-08-24T07:13:40;3.13;;;2.83;;
49183;SDS011;35021;49.214;12.270;2022-08-24T07:16:27;3.25;;;2.95;;
49183;SDS011;35021;49.214;12.270;2022-08-24T07:18:54;3.33;;;3.03;;
49183;SDS011;35021;49.214;12.270;2022-08-24T07:21:21;3.30;;;3.00;;
49183;SDS011;35021;49.214;12.270;2022-08-24T07:23:48;3.47;;;3.17;;
49183;SDS011;35021;49.214;12.270;2022-08-24T07:26:20;3.30;;;2.97;;
49183;SDS011;35021;49.214;12.270;2022-08-24T07:28:55;3.55;;;3.20;;
49183;SDS011;35021;49.214;12.270;2022-08-24T07:31:34;3.25;;;2.70;;
49183;SDS011;35021;49.214;12.270;2022-08-24T07:34:03;3.85;;;3.45;;
49183;SDS011;35021;49.214;12.270;2022-08-24T07:36:32;3.90;;;3.17;;
49183;SDS011;35021;49.214;12.270;2022-08-24T07:39:00;4.00;;;3.00;;
49183;SDS011;35021;49.214;12.270;2022-08-24T07:41:28;4.88;;;2.90;;
49183;SDS011;35021;49.214;12.270;2022-08-24T07:44:16;3.90;;;3.15;;
49183;SDS011;35021;49.214;12.270;2022-08-24T07:46:43;4.43;;;3.50;;
49183;SDS011;35021;49.214;12.270;2022-08-24T07:49:10;5.80;;;3.30;;
49183;SDS011;35021;49.214;12.270;2022-08-24T07:52:08;3.85;;;3.50;;
49183;SDS011;35021;49.214;12.270;2022-08-24T07:54:36;3.83;;;3.10;;
49183;SDS011;35021;49.214;12.270;2022-08-24T07:57:03;3.72;;;3.30;;
49183;SDS011;35021;49.214;12.270;2022-08-24T07:59:32;3.92;;;3.08;;
49183;SDS011;35021;49.214;12.270;2022-08-24T08:01:59;3.25;;;2.95;;
49183;SDS011;35021;49.214;12.270;2022-08-24T08:04:27;3.70;;;3.20;;
49183;SDS011;35021;49.214;12.270;2022-08-24T08:06:54;3.28;;;2.58;;
49183;SDS011;35021;49.214;12.270;2022-08-24T08:09:22;4.72;;;3.47;;
49183;SDS011;35021;49.214;12.270;2022-08-24T08:11:49;4.57;;;3.35;;
49183;SDS011;35021;49.214;12.270;2022-08-24T08:14:16;3.20;;;2.90;;
49183;SDS011;35021;49.214;12.270;2022-08-24T08:16:43;3.83;;;3.22;;
49183;SDS011;35021;49.214;12.270;2022-08-24T08:19:10;3.78;;;3.35;;
49183;SDS011;35021;49.214;12.270;2022-08-24T08:21:47;3.28;;;2.80;;
49183;SDS011;35021;49.214;12.270;2022-08-24T08:24:35;4.28;;;3.30;;
49183;SDS011;35021;49.214;12.270;2022-08-24T08:27:04;4.50;;;3.42;;
49183;SDS011;35021;49.214;12.270;2022-08-24T08:29:31;3.45;;;3.10;;
49183;SDS011;35021;49.214;12.270;2022-08-24T08:32:00;3.72;;;3.17;;
49183;SDS011;35021;49.214;12.270;2022-08-24T08:34:27;5.25;;;3.30;;
49183;SDS011;35021;49.214;12.270;2022-08-24T08:36:56;3.20;;;2.90;;
49183;SDS011;35021;49.214;12.270;2022-08-24T08:39:23;3.40;;;3.10;;
49183;SDS011;35021;49.214;12.270;2022-08-24T08:45:03;5.33;;;3.17;;
49183;SDS011;35021;49.214;12.270;2022-08-24T08:58:37;2.83;;;2.63;;
49183;SDS011;35021;49.214;12.270;2022-08-24T09:07:40;3.63;;;3.10;;
49183;SDS011;35021;49.214;12.270;2022-08-24T09:15:59;3.33;;;3.03;;
49183;SDS011;35021;49.214;12.270;2022-08-24T09:21:14;4.03;;;3.20;;
49183;SDS011;35021;49.214;12.270;2022-08-24T09:26:56;3.80;;;3.33;;
49183;SDS011;35021;49.214;12.270;2022-08-24T09:58:29;3.70;;;3.40;;
49183;SDS011;35021;49.214;12.270;2022-08-24T10:01:06;3.65;;;3.35;;
49183;SDS011;35021;49.214;12.270;2022-08-24T10:03:53;3.55;;;3.25;;
49183;SDS011;35021;49.214;12.270;2022-08-24T10:06:23;3.75;;;3.42;;
49183;SDS011;35021;49.214;12.270;2022-08-24T10:17:15;5.53;;;4.22;;
49183;SDS011;35021;49.214;12.270;2022-08-24T10:26:12;4.45;;;3.60;;
49183;SDS011;35021;49.214;12.270;2022-08-24T10:29:14;4.28;;;3.88;;
49183;SDS011;35021;49.214;12.270;2022-08-24T10:34:38;4.47;;;3.58;;
49183;SDS011;35021;49.214;12.270;2022-08-24T10:48:46;4.50;;;4.10;;
49183;SDS011;35021;49.214;12.270;2022-08-24T10:54:37;5.38;;;4.38;;
49183;SDS011;35021;49.214;12.270;2022-08-24T10:57:06;4.30;;;3.90;;
49183;SDS011;35021;49.214;12.270;2022-08-24T11:02:11;5.45;;;4.95;;
49183;SDS011;35021;49.214;12.270;2022-08-24T11:05:05;4.78;;;4.28;;
49183;SDS011;35021;49.214;12.270;2022-08-24T11:10:27;5.45;;;4.78;;
49183;SDS011;35021;49.214;12.270;2022-08-24T11:13:02;5.25;;;4.75;;
49183;SDS011;35021;49.214;12.270;2022-08-24T11:15:48;5.97;;;4.90;;
49183;SDS011;35021;49.214;12.270;2022-08-24T11:18:18;5.18;;;4.78;;
49183;SDS011;35021;49.214;12.270;2022-08-24T11:20:46;5.68;;;5.00;;
49183;SDS011;35021;49.214;12.270;2022-08-24T11:23:21;5.80;;;5.20;;
49183;SDS011;35021;49.214;12.270;2022-08-24T11:28:46;5.75;;;5.25;;
49183;SDS011;35021;49.214;12.270;2022-08-24T11:31:32;5.57;;;5.07;;
49183;SDS011;35021;49.214;12.270;2022-08-24T11:34:08;5.30;;;4.80;;
49183;SDS011;35021;49.214;12.270;2022-08-24T11:36:43;6.07;;;5.47;;
49183;SDS011;35021;49.214;12.270;2022-08-24T11:39:19;5.30;;;4.47;;
49183;SDS011;35021;49.214;12.270;2022-08-24T11:45:11;6.00;;;5.40;;
49183;SDS011;35021;49.214;12.270;2022-08-24T11:51:11;5.55;;;5.03;;
49183;SDS011;35021;49.214;12.270;2022-08-24T12:09:04;5.28;;;4.70;;
49183;SDS011;35021;49.214;12.270;2022-08-24T12:11:46;5.13;;;4.65;;
49183;SDS011;35021;49.214;12.270;2022-08-24T12:14:44;5.43;;;4.93;;
49183;SDS011;35021;49.214;12.270;2022-08-24T12:17:27;4.88;;;4.47;;
49183;SDS011;35021;49.214;12.270;2022-08-24T12:20:25;5.35;;;4.50;;
49183;SDS011;35021;49.214;12.270;2022-08-24T12:23:06;5.25;;;4.75;;
49183;SDS011;35021;49.214;12.270;2022-08-24T12:25:39;5.20;;;4.70;;
49183;SDS011;35021;49.214;12.270;2022-08-24T12:28:51;5.15;;;4.65;;
49183;SDS011;35021;49.214;12.270;2022-08-24T12:31:21;5.20;;;4.68;;
49183;SDS011;35021;49.214;12.270;2022-08-24T12:34:00;5.20;;;4.70;;
49183;SDS011;35021;49.214;12.270;2022-08-24T12:36:38;5.40;;;4.90;;
49183;SDS011;35021;49.214;12.270;2022-08-24T12:39:13;5.22;;;4.70;;
49183;SDS011;35021;49.214;12.270;2022-08-24T12:41:56;5.15;;;4.65;;
49183;SDS011;35021;49.214;12.270;2022-08-24T12:44:34;5.03;;;4.53;;
49183;SDS011;35021;49.214;12.270;2022-08-24T12:53:35;4.50;;;4.10;;
49183;SDS011;35021;49.214;12.270;2022-08-24T12:56:04;4.80;;;4.40;;
49183;SDS011;35021;49.214;12.270;2022-08-24T13:01:32;4.85;;;4.45;;
49183;SDS011;35021;49.214;12.270;2022-08-24T13:06:48;6.05;;;4.22;;
49183;SDS011;35021;49.214;12.270;2022-08-24T13:10:05;5.95;;;4.50;;
49183;SDS011;35021;49.214;12.270;2022-08-24T13:17:47;5.30;;;4.80;;
49183;SDS011;35021;49.214;12.270;2022-08-24T13:28:44;5.43;;;4.82;;
49183;SDS011;35021;49.214;12.270;2022-08-24T13:31:17;5.18;;;4.40;;
49183;SDS011;35021;49.214;12.270;2022-08-24T13:33:49;4.97;;;4.40;;
49183;SDS011;35021;49.214;12.270;2022-08-24T13:42:20;4.82;;;4.43;;
49183;SDS011;35021;49.214;12.270;2022-08-24T13:51:04;4.95;;;4.55;;
49183;SDS011;35021;49.214;12.270;2022-08-24T14:05:53;4.75;;;4.35;;
49183;SDS011;35021;49.214;12.270;2022-08-24T14:13:43;5.20;;;4.70;;
49183;SDS011;35021;49.214;12.270;2022-08-24T14:16:31;5.32;;;4.53;;
49183;SDS011;35021;49.214;12.270;2022-08-24T14:21:55;4.70;;;4.30;;
49183;SDS011;35021;49.214;12.270;2022-08-24T14:24:42;5.30;;;4.43;;
49183;SDS011;35021;49.214;12.270;2022-08-24T14:43:18;4.82;;;4.43;;
49183;SDS011;35021;49.214;12.270;2022-08-24T14:54:18;5.00;;;4.35;;
49183;SDS011;35021;49.214;12.270;2022-08-24T14:57:02;4.57;;;4.18;;
49183;SDS011;35021;49.214;12.270;2022-08-24T15:08:02;4.90;;;4.50;;
49183;SDS011;35021;49.214;12.270;2022-08-24T15:10:41;4.93;;;4.43;;
49183;SDS011;35021;49.214;12.270;2022-08-24T15:13:26;5.20;;;4.70;;
49183;SDS011;35021;49.214;12.270;2022-08-24T15:19:24;5.32;;;4.82;;
49183;SDS011;35021;49.214;12.270;2022-08-24T15:22:12;5.35;;;4.45;;
49183;SDS011;35021;49.214;12.270;2022-08-24T15:24:50;5.20;;;4.70;;
49183;SDS011;35021;49.214;12.270;2022-08-24T15:27:36;5.53;;;5.03;;
49183;SDS011;35021;49.214;12.270;2022-08-24T15:32:52;4.85;;;4.45;;
49183;SDS011;35021;49.214;12.270;2022-08-24T15:35:30;5.68;;;4.70;;
49183;SDS011;35021;49.214;12.270;2022-08-24T15:43:44;5.68;;;3.92;;
49183;SDS011;35021;49.214;12.270;2022-08-24T15:46:20;5.10;;;4.30;;
49183;SDS011;35021;49.214;12.270;2022-08-24T15:48:52;5.55;;;4.72;;
49183;SDS011;35021;49.214;12.270;2022-08-24T15:51:32;5.63;;;4.95;;
49183;SDS011;35021;49.214;12.270;2022-08-24T15:59:30;4.63;;;4.22;;
49183;SDS011;35021;49.214;12.270;2022-08-24T16:10:34;4.68;;;4.28;;
49183;SDS011;35021;49.214;12.270;2022-08-24T16:15:44;5.68;;;3.88;;
49183;SDS011;35021;49.214;12.270;2022-08-24T16:18:47;5.00;;;4.03;;
49183;SDS011;35021;49.214;12.270;2022-08-24T16:21:27;4.85;;;4.35;;
49183;SDS011;35021;49.214;12.270;2022-08-24T16:24:02;4.32;;;3.92;;
49183;SDS011;35021;49.214;12.270;2022-08-24T16:37:34;4.65;;;4.25;;
49183;SDS011;35021;49.214;12.270;2022-08-24T16:40:01;4.60;;;4.20;;
49183;SDS011;35021;49.214;12.270;2022-08-24T16:42:29;4.45;;;4.05;;
49183;SDS011;35021;49.214;12.270;2022-08-24T16:44:57;4.57;;;4.18;;
49183;SDS011;35021;49.214;12.270;2022-08-24T16:47:25;4.60;;;4.20;;
49183;SDS011;35021;49.214;12.270;2022-08-24T16:49:53;4.65;;;4.07;;
49183;SDS011;35021;49.214;12.270;2022-08-24T16:52:21;5.38;;;4.70;;
49183;SDS011;35021;49.214;12.270;2022-08-24T16:54:48;4.35;;;3.95;;
49183;SDS011;35021;49.214;12.270;2022-08-24T16:57:21;4.47;;;4.07;;
49183;SDS011;35021;49.214;12.270;2022-08-24T16:59:50;5.38;;;4.05;;
49183;SDS011;35021;49.214;12.270;2022-08-24T17:02:18;4.63;;;4.22;;
49183;SDS011;35021;49.214;12.270;2022-08-24T17:04:47;4.53;;;4.13;;
49183;SDS011;35021;49.214;12.270;2022-08-24T17:07:16;4.93;;;4.15;;
49183;SDS011;35021;49.214;12.270;2022-08-24T17:09:47;4.40;;;4.00;;
49183;SDS011;35021;49.214;12.270;2022-08-24T17:12:15;4.85;;;4.10;;
49183;SDS011;35021;49.214;12.270;2022-08-24T17:14:42;4.45;;;4.05;;
49183;SDS011;35021;49.214;12.270;2022-08-24T17:17:11;4.82;;;4.30;;
49183;SDS011;35021;49.214;12.270;2022-08-24T17:19:39;4.60;;;4.20;;
49183;SDS011;35021;49.214;12.270;2022-08-24T17:22:09;4.50;;;4.10;;
49183;SDS011;35021;49.214;12.270;2022-08-24T17:24:41;4.75;;;4.35;;
49183;SDS011;35021;49.214;12.270;2022-08-24T17:27:09;4.53;;;4.07;;
49183;SDS011;35021;49.214;12.270;2022-08-24T17:29:38;4.80;;;4.40;;
49183;SDS011;35021;49.214;12.270;2022-08-24T17:32:05;4.30;;;3.90;;
49183;SDS011;35021;49.214;12.270;2022-08-24T17:34:32;4.55;;;4.15;;
49183;SDS011;35021;49.214;12.270;2022-08-24T17:37:02;5.20;;;4.70;;
49183;SDS011;35021;49.214;12.270;2022-08-24T17:39:30;4.35;;;3.95;;
49183;SDS011;35021;49.214;12.270;2022-08-24T17:41:57;4.80;;;4.30;;
49183;SDS011;35021;49.214;12.270;2022-08-24T17:44:26;4.47;;;4.07;;
49183;SDS011;35021;49.214;12.270;2022-08-24T17:46:56;4.43;;;3.95;;
49183;SDS011;35021;49.214;12.270;2022-08-24T17:49:26;4.50;;;4.10;;
49183;SDS011;35021;49.214;12.270;2022-08-24T17:51:56;4.72;;;4.30;;
49183;SDS011;35021;49.214;12.270;2022-08-24T17:54:24;5.25;;;4.22;;
49183;SDS011;35021;49.214;12.270;2022-08-24T17:56:54;4.22;;;3.83;;
49183;SDS011;35021;49.214;12.270;2022-08-24T17:59:24;4.53;;;4.13;;
49183;SDS011;35021;49.214;12.270;2022-08-24T18:01:58;4.45;;;4.05;;
49183;SDS011;35021;49.214;12.270;2022-08-24T18:04:26;5.18;;;4.10;;
49183;SDS011;35021;49.214;12.270;2022-08-24T18:06:59;4.60;;;4.20;;
49183;SDS011;35021;49.214;12.270;2022-08-24T18:09:32;4.32;;;3.92;;
49183;SDS011;35021;49.214;12.270;2022-08-24T18:12:03;4.22;;;3.85;;
49183;SDS011;35021;49.214;12.270;2022-08-24T18:14:32;4.40;;;3.75;;
49183;SDS011;35021;49.214;12.270;2022-08-24T18:17:01;4.63;;;4.00;;
49183;SDS011;35021;49.214;12.270;2022-08-24T18:19:32;4.30;;;3.90;;
49183;SDS011;35021;49.214;12.270;2022-08-24T18:22:01;4.25;;;3.78;;
49183;SDS011;35021;49.214;12.270;2022-08-24T18:24:30;4.25;;;3.65;;
49183;SDS011;35021;49.214;12.270;2022-08-24T18:26:58;4.88;;;4.00;;
49183;SDS011;35021;49.214;12.270;2022-08-24T18:29:29;4.40;;;3.97;;
49183;SDS011;35021;49.214;12.270;2022-08-24T18:31:59;4.13;;;3.72;;
49183;SDS011;35021;49.214;12.270;2022-08-24T18:34:26;4.45;;;3.90;;
49183;SDS011;35021;49.214;12.270;2022-08-24T18:36:55;4.68;;;4.28;;
49183;SDS011;35021;49.214;12.270;2022-08-24T18:39:22;5.20;;;3.80;;
49183;SDS011;35021;49.214;12.270;2022-08-24T18:41:49;4.60;;;4.20;;
49183;SDS011;35021;49.214;12.270;2022-08-24T18:44:17;4.88;;;4.32;;
49183;SDS011;35021;49.214;12.270;2022-08-24T18:46:46;4.40;;;4.00;;
49183;SDS011;35021;49.214;12.270;2022-08-24T18:49:14;4.47;;;4.07;;
49183;SDS011;35021;49.214;12.270;2022-08-24T18:51:42;4.68;;;4.28;;
49183;SDS011;35021;49.214;12.270;2022-08-24T18:54:12;4.55;;;4.15;;
49183;SDS011;35021;49.214;12.270;2022-08-24T18:56:42;4.22;;;3.83;;
49183;SDS011;35021;49.214;12.270;2022-08-24T18:59:10;4.25;;;3.85;;
49183;SDS011;35021;49.214;12.270;2022-08-24T19:01:42;4.05;;;3.65;;
49183;SDS011;35021;49.214;12.270;2022-08-24T19:04:30;4.32;;;3.92;;
49183;SDS011;35021;49.214;12.270;2022-08-24T19:06:59;5.05;;;4.18;;
49183;SDS011;35021;49.214;12.270;2022-08-24T19:09:26;4.75;;;3.90;;
49183;SDS011;35021;49.214;12.270;2022-08-24T19:11:59;4.97;;;4.47;;
49183;SDS011;35021;49.214;12.270;2022-08-24T19:14:26;4.30;;;3.90;;